sensor_id;sensor_type;location;lat;lon;timestamp;pressure;altitude;pressure_sealevel;temperature;humidity
61710;BME280;73500;51.494;5.386;2024-01-16T00:01:50;100865.34;;;18.20;38.18
61710;BME280;73500;51.494;5.386;2024-01-16T00:04:16;100876.03;;;18.19;38.08
61710;BME280;73500;51.494;5.386;2024-01-16T00:06:41;100866.91;;;18.11;38.06
61710;BME280;73500;51.494;5.386;2024-01-16T00:09:07;100881.66;;;18.14;38.11
61710;BME280;73500;51.494;5.386;2024-01-16T00:11:33;100887.75;;;18.15;38.00
61710;BME280;73500;51.494;5.386;2024-01-16T00:13:58;100881.31;;;18.07;38.05
61710;BME280;73500;51.494;5.386;2024-01-16T00:16:23;100875.84;;;17.99;38.34
61710;BME280;73500;51.494;5.386;2024-01-16T00:18:48;100886.84;;;18.04;38.08
61710;BME280;73500;51.494;5.386;2024-01-16T00:21:14;100894.50;;;18.07;38.16
61710;BME280;73500;51.494;5.386;2024-01-16T00:23:39;100878.22;;;17.91;38.08
61710;BME280;73500;51.494;5.386;2024-01-16T00:26:04;100882.31;;;17.95;37.89
61710;BME280;73500;51.494;5.386;2024-01-16T00:28:31;100877.28;;;17.92;38.12
61710;BME280;73500;51.494;5.386;2024-01-16T00:30:56;100887.22;;;18.00;38.13
61710;BME280;73500;51.494;5.386;2024-01-16T00:33:22;100891.78;;;17.98;38.01
61710;BME280;73500;51.494;5.386;2024-01-16T00:35:47;100876.69;;;17.88;37.78
61710;BME280;73500;51.494;5.386;2024-01-16T00:38:12;100895.38;;;17.97;37.68
61710;BME280;73500;51.494;5.386;2024-01-16T00:40:38;100886.13;;;17.91;37.85
61710;BME280;73500;51.494;5.386;2024-01-16T00:43:03;100875.22;;;17.84;37.94
61710;BME280;73500;51.494;5.386;2024-01-16T00:45:29;100882.53;;;17.92;38.16
61710;BME280;73500;51.494;5.386;2024-01-16T00:47:55;100887.09;;;17.90;38.04
61710;BME280;73500;51.494;5.386;2024-01-16T00:50:20;100900.16;;;17.91;37.92
61710;BME280;73500;51.494;5.386;2024-01-16T00:52:46;100889.88;;;17.88;37.89
61710;BME280;73500;51.494;5.386;2024-01-16T00:55:11;100893.22;;;17.90;38.27
61710;BME280;73500;51.494;5.386;2024-01-16T00:57:36;100889.75;;;17.90;38.06
61710;BME280;73500;51.494;5.386;2024-01-16T01:00:02;100889.97;;;17.87;38.12
61710;BME280;73500;51.494;5.386;2024-01-16T01:02:29;100878.09;;;17.81;38.25
61710;BME280;73500;51.494;5.386;2024-01-16T01:04:54;100894.28;;;17.88;38.26
61710;BME280;73500;51.494;5.386;2024-01-16T01:07:19;100878.44;;;17.76;38.25
61710;BME280;73500;51.494;5.386;2024-01-16T01:09:45;100891.03;;;17.84;38.34
61710;BME280;73500;51.494;5.386;2024-01-16T01:12:10;100883.00;;;17.74;38.28
61710;BME280;73500;51.494;5.386;2024-01-16T01:14:35;100890.44;;;17.81;38.26
61710;BME280;73500;51.494;5.386;2024-01-16T01:17:01;100887.69;;;17.71;38.27
61710;BME280;73500;51.494;5.386;2024-01-16T01:19:26;100894.88;;;17.80;38.29
61710;BME280;73500;51.494;5.386;2024-01-16T01:21:51;100878.22;;;17.68;38.28
61710;BME280;73500;51.494;5.386;2024-01-16T01:24:17;100884.31;;;17.69;38.09
61710;BME280;73500;51.494;5.386;2024-01-16T01:26:45;100890.22;;;17.72;38.19
61710;BME280;73500;51.494;5.386;2024-01-16T01:29:10;100896.19;;;17.74;38.21
61710;BME280;73500;51.494;5.386;2024-01-16T01:31:35;100881.56;;;17.70;38.15
61710;BME280;73500;51.494;5.386;2024-01-16T01:34:01;100885.75;;;17.73;38.01
61710;BME280;73500;51.494;5.386;2024-01-16T01:36:26;100891.97;;;17.72;37.98
61710;BME280;73500;51.494;5.386;2024-01-16T01:38:52;100872.59;;;17.62;37.90
61710;BME280;73500;51.494;5.386;2024-01-16T01:41:17;100874.53;;;17.59;38.12
61710;BME280;73500;51.494;5.386;2024-01-16T01:43:42;100887.94;;;17.68;37.99
61710;BME280;73500;51.494;5.386;2024-01-16T01:46:08;100890.56;;;17.68;37.99
61710;BME280;73500;51.494;5.386;2024-01-16T01:48:35;100870.31;;;17.57;38.10
61710;BME280;73500;51.494;5.386;2024-01-16T01:51:01;100895.97;;;17.66;37.83
61710;BME280;73500;51.494;5.386;2024-01-16T01:53:28;100892.63;;;17.64;38.13
61710;BME280;73500;51.494;5.386;2024-01-16T01:55:55;100898.84;;;17.63;37.83
61710;BME280;73500;51.494;5.386;2024-01-16T01:58:21;100902.28;;;17.64;38.17
61710;BME280;73500;51.494;5.386;2024-01-16T02:00:46;100910.44;;;17.61;38.06
61710;BME280;73500;51.494;5.386;2024-01-16T02:03:12;100899.66;;;17.52;38.14
61710;BME280;73500;51.494;5.386;2024-01-16T02:05:38;100891.16;;;17.49;38.13
61710;BME280;73500;51.494;5.386;2024-01-16T02:08:04;100915.94;;;17.57;38.01
61710;BME280;73500;51.494;5.386;2024-01-16T02:10:31;100917.63;;;17.58;37.99
61710;BME280;73500;51.494;5.386;2024-01-16T02:12:57;100905.06;;;17.51;37.84
61710;BME280;73500;51.494;5.386;2024-01-16T02:15:26;100921.34;;;17.56;37.66
61710;BME280;73500;51.494;5.386;2024-01-16T02:17:51;100913.91;;;17.50;37.84
61710;BME280;73500;51.494;5.386;2024-01-16T02:20:16;100921.81;;;17.50;37.77
61710;BME280;73500;51.494;5.386;2024-01-16T02:22:45;100922.66;;;17.50;37.83
61710;BME280;73500;51.494;5.386;2024-01-16T02:25:12;100913.19;;;17.48;37.71
61710;BME280;73500;51.494;5.386;2024-01-16T02:27:37;100904.22;;;17.39;37.70
61710;BME280;73500;51.494;5.386;2024-01-16T02:30:03;100901.47;;;17.40;37.80
61710;BME280;73500;51.494;5.386;2024-01-16T02:32:28;100917.75;;;17.46;38.08
61710;BME280;73500;51.494;5.386;2024-01-16T02:34:54;100917.28;;;17.40;38.15
61710;BME280;73500;51.494;5.386;2024-01-16T02:37:19;100906.97;;;17.37;37.95
61710;BME280;73500;51.494;5.386;2024-01-16T02:39:44;100915.22;;;17.44;38.09
61710;BME280;73500;51.494;5.386;2024-01-16T02:42:10;100908.63;;;17.38;38.03
61710;BME280;73500;51.494;5.386;2024-01-16T02:44:35;100915.34;;;17.43;37.65
61710;BME280;73500;51.494;5.386;2024-01-16T02:47:01;100904.56;;;17.34;38.11
61710;BME280;73500;51.494;5.386;2024-01-16T02:49:26;100917.16;;;17.42;37.73
61710;BME280;73500;51.494;5.386;2024-01-16T02:51:51;100911.03;;;17.41;37.73
61710;BME280;73500;51.494;5.386;2024-01-16T02:54:17;100895.22;;;17.30;37.81
61710;BME280;73500;51.494;5.386;2024-01-16T02:56:42;100908.63;;;17.38;37.77
61710;BME280;73500;51.494;5.386;2024-01-16T02:59:07;100888.41;;;17.28;38.10
61710;BME280;73500;51.494;5.386;2024-01-16T03:01:32;100896.19;;;17.29;37.76
61710;BME280;73500;51.494;5.386;2024-01-16T03:03:58;100909.59;;;17.37;38.11
61710;BME280;73500;51.494;5.386;2024-01-16T03:06:24;100901.56;;;17.28;38.10
61710;BME280;73500;51.494;5.386;2024-01-16T03:08:50;100902.53;;;17.27;38.07
61710;BME280;73500;51.494;5.386;2024-01-16T03:11:16;100902.28;;;17.30;38.01
61710;BME280;73500;51.494;5.386;2024-01-16T03:13:41;100863.22;;;17.01;37.82
61710;BME280;73500;51.494;5.386;2024-01-16T03:16:07;100914.25;;;17.34;38.28
61710;BME280;73500;51.494;5.386;2024-01-16T03:18:32;100900.94;;;17.24;37.97
61710;BME280;73500;51.494;5.386;2024-01-16T03:20:58;100908.63;;;17.27;37.99
61710;BME280;73500;51.494;5.386;2024-01-16T03:23:24;100906.97;;;17.26;37.94
61710;BME280;73500;51.494;5.386;2024-01-16T03:25:49;100899.41;;;17.21;38.27
61710;BME280;73500;51.494;5.386;2024-01-16T03:28:15;100904.56;;;17.23;38.32
61710;BME280;73500;51.494;5.386;2024-01-16T03:30:40;100915.34;;;17.31;38.25
61710;BME280;73500;51.494;5.386;2024-01-16T03:33:05;100903.81;;;17.21;38.05
61710;BME280;73500;51.494;5.386;2024-01-16T03:35:31;100897.59;;;17.22;37.92
61710;BME280;73500;51.494;5.386;2024-01-16T03:37:56;100906.84;;;17.28;38.35
61710;BME280;73500;51.494;5.386;2024-01-16T03:40:21;100891.63;;;17.20;37.90
61710;BME280;73500;51.494;5.386;2024-01-16T03:42:47;100902.63;;;17.25;37.84
61710;BME280;73500;51.494;5.386;2024-01-16T03:45:12;100892.56;;;17.19;37.99
61710;BME280;73500;51.494;5.386;2024-01-16T03:47:38;100896.44;;;17.26;37.90
61710;BME280;73500;51.494;5.386;2024-01-16T03:50:04;100897.25;;;17.27;38.15
61710;BME280;73500;51.494;5.386;2024-01-16T03:52:29;100883.84;;;17.18;37.81
61710;BME280;73500;51.494;5.386;2024-01-16T03:54:54;100879.50;;;17.17;38.19
61710;BME280;73500;51.494;5.386;2024-01-16T03:57:20;100881.19;;;17.18;37.87
61710;BME280;73500;51.494;5.386;2024-01-16T03:59:45;100887.91;;;17.22;38.24
61710;BME280;73500;51.494;5.386;2024-01-16T04:02:10;100887.06;;;17.22;38.07
61710;BME280;73500;51.494;5.386;2024-01-16T04:04:35;100881.78;;;17.22;38.11
61710;BME280;73500;51.494;5.386;2024-01-16T04:07:01;100884.53;;;17.20;38.11
61710;BME280;73500;51.494;5.386;2024-01-16T04:09:26;100877.72;;;17.18;38.04
61710;BME280;73500;51.494;5.386;2024-01-16T04:11:51;100881.91;;;17.20;37.85
61710;BME280;73500;51.494;5.386;2024-01-16T04:14:17;100869.69;;;17.19;37.97
61710;BME280;73500;51.494;5.386;2024-01-16T04:16:42;100861.06;;;17.17;38.26
61710;BME280;73500;51.494;5.386;2024-01-16T04:19:07;100867.19;;;17.18;37.94
61710;BME280;73500;51.494;5.386;2024-01-16T04:21:33;100849.47;;;17.09;37.89
61710;BME280;73500;51.494;5.386;2024-01-16T04:23:58;100862.03;;;17.16;37.88
61710;BME280;73500;51.494;5.386;2024-01-16T04:26:23;100854.13;;;17.16;38.10
61710;BME280;73500;51.494;5.386;2024-01-16T04:28:50;100851.00;;;17.11;38.05
61710;BME280;73500;51.494;5.386;2024-01-16T04:31:15;100840.00;;;17.06;38.04
61710;BME280;73500;51.494;5.386;2024-01-16T04:33:42;100852.59;;;17.14;37.79
61710;BME280;73500;51.494;5.386;2024-01-16T04:36:08;100850.78;;;17.14;37.79
61710;BME280;73500;51.494;5.386;2024-01-16T04:38:33;100836.66;;;17.04;37.70
61710;BME280;73500;51.494;5.386;2024-01-16T04:41:04;100852.59;;;17.14;37.69
61710;BME280;73500;51.494;5.386;2024-01-16T04:43:30;100857.03;;;17.13;38.07
61710;BME280;73500;51.494;5.386;2024-01-16T04:45:55;100850.91;;;17.13;37.49
61710;BME280;73500;51.494;5.386;2024-01-16T04:48:20;100853.53;;;17.13;37.58
61710;BME280;73500;51.494;5.386;2024-01-16T04:50:46;100848.72;;;17.07;37.61
61710;BME280;73500;51.494;5.386;2024-01-16T04:53:11;100854.50;;;17.12;37.67
61710;BME280;73500;51.494;5.386;2024-01-16T04:55:36;100862.53;;;17.10;37.94
61710;BME280;73500;51.494;5.386;2024-01-16T04:58:02;100856.63;;;17.07;38.00
61710;BME280;73500;51.494;5.386;2024-01-16T05:00:27;100855.69;;;17.08;38.07
61710;BME280;73500;51.494;5.386;2024-01-16T05:02:52;100837.25;;;16.96;37.88
61710;BME280;73500;51.494;5.386;2024-01-16T05:05:18;100856.41;;;17.10;38.02
61710;BME280;73500;51.494;5.386;2024-01-16T05:07:43;100839.53;;;17.01;37.60
61710;BME280;73500;51.494;5.386;2024-01-16T05:10:12;100848.50;;;17.10;37.67
61710;BME280;73500;51.494;5.386;2024-01-16T05:12:40;100840.34;;;17.01;37.85
61710;BME280;73500;51.494;5.386;2024-01-16T05:15:06;100836.03;;;17.00;37.74
61710;BME280;73500;51.494;5.386;2024-01-16T05:17:32;100842.53;;;17.08;38.05
61710;BME280;73500;51.494;5.386;2024-01-16T05:19:58;100845.03;;;17.09;38.11
61710;BME280;73500;51.494;5.386;2024-01-16T05:22:23;100823.97;;;16.98;37.95
61710;BME280;73500;51.494;5.386;2024-01-16T05:24:48;100833.66;;;17.09;37.48
61710;BME280;73500;51.494;5.386;2024-01-16T05:27:13;100823.72;;;17.01;37.51
61710;BME280;73500;51.494;5.386;2024-01-16T05:29:41;100826.25;;;17.02;37.73
61710;BME280;73500;51.494;5.386;2024-01-16T05:32:06;100815.09;;;16.99;37.87
61710;BME280;73500;51.494;5.386;2024-01-16T05:34:31;100827.66;;;17.07;38.25
61710;BME280;73500;51.494;5.386;2024-01-16T05:36:57;100822.28;;;17.08;38.37
61710;BME280;73500;51.494;5.386;2024-01-16T05:39:22;100828.06;;;17.13;38.60
61710;BME280;73500;51.494;5.386;2024-01-16T05:41:47;100829.84;;;17.24;38.63
61710;BME280;73500;51.494;5.386;2024-01-16T05:44:13;100826.84;;;17.29;38.49
61710;BME280;73500;51.494;5.386;2024-01-16T05:46:38;100836.09;;;17.34;38.59
61710;BME280;73500;51.494;5.386;2024-01-16T05:49:03;100835.47;;;17.42;38.65
61710;BME280;73500;51.494;5.386;2024-01-16T05:51:30;100820.75;;;17.39;38.09
61710;BME280;73500;51.494;5.386;2024-01-16T05:53:55;100822.78;;;17.47;38.11
61710;BME280;73500;51.494;5.386;2024-01-16T05:56:21;100829.09;;;17.56;38.10
61710;BME280;73500;51.494;5.386;2024-01-16T05:58:46;100828.88;;;17.59;38.09
61710;BME280;73500;51.494;5.386;2024-01-16T06:01:11;100824.34;;;17.61;37.96
61710;BME280;73500;51.494;5.386;2024-01-16T06:03:40;100826.72;;;17.64;37.88
61710;BME280;73500;51.494;5.386;2024-01-16T06:06:06;100821.34;;;17.66;37.81
61710;BME280;73500;51.494;5.386;2024-01-16T06:08:32;100824.69;;;17.68;37.48
61710;BME280;73500;51.494;5.386;2024-01-16T06:10:57;100808.53;;;17.61;37.51
61710;BME280;73500;51.494;5.386;2024-01-16T06:13:23;100826.22;;;17.70;37.82
61710;BME280;73500;51.494;5.386;2024-01-16T06:15:48;100811.63;;;17.66;37.91
61710;BME280;73500;51.494;5.386;2024-01-16T06:18:13;100817.13;;;17.74;37.59
61710;BME280;73500;51.494;5.386;2024-01-16T06:20:38;100820.56;;;17.75;37.99
61710;BME280;73500;51.494;5.386;2024-01-16T06:23:04;100806.94;;;17.70;37.96
61710;BME280;73500;51.494;5.386;2024-01-16T06:25:29;100812.09;;;17.71;37.79
61710;BME280;73500;51.494;5.386;2024-01-16T06:27:54;100807.06;;;17.68;37.99
61710;BME280;73500;51.494;5.386;2024-01-16T06:30:21;100817.13;;;17.74;38.06
61710;BME280;73500;51.494;5.386;2024-01-16T06:32:47;100800.97;;;17.68;38.11
61710;BME280;73500;51.494;5.386;2024-01-16T06:35:12;100817.56;;;17.80;37.87
61710;BME280;73500;51.494;5.386;2024-01-16T06:37:38;100805.97;;;17.71;38.33
61710;BME280;73500;51.494;5.386;2024-01-16T06:40:04;100825.34;;;17.81;38.21
61710;BME280;73500;51.494;5.386;2024-01-16T06:42:30;100816.50;;;17.82;38.17
61710;BME280;73500;51.494;5.386;2024-01-16T06:44:56;100808.13;;;17.77;38.27
61710;BME280;73500;51.494;5.386;2024-01-16T06:47:21;100825.13;;;17.84;38.16
61710;BME280;73500;51.494;5.386;2024-01-16T06:49:46;100824.03;;;17.87;38.28
61710;BME280;73500;51.494;5.386;2024-01-16T06:52:12;100823.09;;;17.88;38.41
61710;BME280;73500;51.494;5.386;2024-01-16T06:54:37;100820.09;;;17.81;38.10
61710;BME280;73500;51.494;5.386;2024-01-16T06:57:03;100827.88;;;17.83;38.27
61710;BME280;73500;51.494;5.386;2024-01-16T06:59:28;100820.81;;;17.83;38.30
61710;BME280;73500;51.494;5.386;2024-01-16T07:01:54;100821.53;;;17.85;38.42
61710;BME280;73500;51.494;5.386;2024-01-16T07:04:20;100826.94;;;17.84;38.16
61710;BME280;73500;51.494;5.386;2024-01-16T07:06:45;100834.38;;;17.90;38.34
61710;BME280;73500;51.494;5.386;2024-01-16T07:09:11;100841.44;;;17.89;38.25
61710;BME280;73500;51.494;5.386;2024-01-16T07:11:37;100844.69;;;17.93;38.14
61710;BME280;73500;51.494;5.386;2024-01-16T07:14:03;100843.00;;;17.92;38.46
61710;BME280;73500;51.494;5.386;2024-01-16T07:16:28;100840.81;;;17.86;38.39
61710;BME280;73500;51.494;5.386;2024-01-16T07:18:54;100844.81;;;17.91;38.54
61710;BME280;73500;51.494;5.386;2024-01-16T07:21:21;100850.31;;;17.88;38.12
61710;BME280;73500;51.494;5.386;2024-01-16T07:23:47;100853.53;;;17.92;38.44
61710;BME280;73500;51.494;5.386;2024-01-16T07:26:12;100840.81;;;17.86;38.66
61710;BME280;73500;51.494;5.386;2024-01-16T07:28:38;100851.84;;;17.91;38.40
61710;BME280;73500;51.494;5.386;2024-01-16T07:31:03;100845.75;;;17.90;38.45
61710;BME280;73500;51.494;5.386;2024-01-16T07:33:29;100852.72;;;17.91;38.31
61710;BME280;73500;51.494;5.386;2024-01-16T07:35:54;100834.59;;;17.87;38.49
61710;BME280;73500;51.494;5.386;2024-01-16T07:38:20;100853.19;;;17.97;38.37
61710;BME280;73500;51.494;5.386;2024-01-16T07:40:45;100833.63;;;17.88;38.34
61710;BME280;73500;51.494;5.386;2024-01-16T07:43:10;100842.03;;;17.93;38.35
61710;BME280;73500;51.494;5.386;2024-01-16T07:45:37;100837.84;;;17.90;38.64
61710;BME280;73500;51.494;5.386;2024-01-16T07:48:02;100839.41;;;17.93;38.49
61710;BME280;73500;51.494;5.386;2024-01-16T07:50:28;100860.00;;;17.99;38.26
61710;BME280;73500;51.494;5.386;2024-01-16T07:52:53;100860.97;;;17.98;38.19
61710;BME280;73500;51.494;5.386;2024-01-16T07:55:19;100846.69;;;17.89;38.12
61710;BME280;73500;51.494;5.386;2024-01-16T07:57:44;100871.50;;;17.98;38.15
61710;BME280;73500;51.494;5.386;2024-01-16T08:00:10;100869.69;;;17.99;38.20
61710;BME280;73500;51.494;5.386;2024-01-16T08:02:38;100862.53;;;17.89;38.28
61710;BME280;73500;51.494;5.386;2024-01-16T08:05:04;100875.97;;;17.98;38.33
61710;BME280;73500;51.494;5.386;2024-01-16T08:07:30;100863.25;;;17.91;38.16
61710;BME280;73500;51.494;5.386;2024-01-16T08:09:56;100859.06;;;17.89;38.41
61710;BME280;73500;51.494;5.386;2024-01-16T08:12:21;100858.09;;;17.90;38.35
61710;BME280;73500;51.494;5.386;2024-01-16T08:14:47;100868.88;;;17.98;38.36
61710;BME280;73500;51.494;5.386;2024-01-16T08:17:12;100867.44;;;17.94;38.44
61710;BME280;73500;51.494;5.386;2024-01-16T08:19:37;100851.25;;;17.87;38.52
61710;BME280;73500;51.494;5.386;2024-01-16T08:22:03;100856.28;;;17.90;38.47
61710;BME280;73500;51.494;5.386;2024-01-16T08:24:29;100861.78;;;17.99;38.29
61710;BME280;73500;51.494;5.386;2024-01-16T08:26:54;100859.63;;;17.92;38.28
61710;BME280;73500;51.494;5.386;2024-01-16T08:29:23;100881.69;;;18.03;38.51
61710;BME280;73500;51.494;5.386;2024-01-16T08:31:48;100885.88;;;18.05;38.34
61710;BME280;73500;51.494;5.386;2024-01-16T08:34:13;100875.22;;;17.95;38.17
61710;BME280;73500;51.494;5.386;2024-01-16T08:36:39;100872.69;;;17.94;38.24
61710;BME280;73500;51.494;5.386;2024-01-16T08:39:05;100884.22;;;18.04;38.19
61710;BME280;73500;51.494;5.386;2024-01-16T08:41:31;100886.72;;;18.06;38.18
61710;BME280;73500;51.494;5.386;2024-01-16T08:43:56;100880.84;;;18.02;38.07
61710;BME280;73500;51.494;5.386;2024-01-16T08:46:21;100854.97;;;17.96;38.19
61710;BME280;73500;51.494;5.386;2024-01-16T08:48:47;100877.50;;;18.00;38.06
61710;BME280;73500;51.494;5.386;2024-01-16T08:51:13;100867.44;;;17.94;38.17
61710;BME280;73500;51.494;5.386;2024-01-16T08:53:39;100878.19;;;18.02;38.11
61710;BME280;73500;51.494;5.386;2024-01-16T08:56:04;100876.91;;;17.97;38.13
61710;BME280;73500;51.494;5.386;2024-01-16T08:58:32;100862.28;;;17.92;38.79
61710;BME280;73500;51.494;5.386;2024-01-16T09:01:01;100865.78;;;17.93;38.67
61710;BME280;73500;51.494;5.386;2024-01-16T09:03:27;100874.84;;;18.00;38.88
61710;BME280;73500;51.494;5.386;2024-01-16T09:05:52;100875.94;;;18.09;39.28
61710;BME280;73500;51.494;5.386;2024-01-16T09:08:17;100870.66;;;18.09;39.76
61710;BME280;73500;51.494;5.386;2024-01-16T09:10:42;100884.88;;;18.18;40.24
61710;BME280;73500;51.494;5.386;2024-01-16T09:13:08;100873.50;;;18.17;40.33
61710;BME280;73500;51.494;5.386;2024-01-16T09:15:33;100871.00;;;18.16;40.39
61710;BME280;73500;51.494;5.386;2024-01-16T09:17:59;100877.06;;;18.27;40.56
61710;BME280;73500;51.494;5.386;2024-01-16T09:20:24;100858.38;;;18.19;40.79
61710;BME280;73500;51.494;5.386;2024-01-16T09:22:50;100878.63;;;18.30;40.98
61710;BME280;73500;51.494;5.386;2024-01-16T09:25:15;100861.47;;;18.24;41.10
61710;BME280;73500;51.494;5.386;2024-01-16T09:27:42;100874.03;;;18.32;41.25
61710;BME280;73500;51.494;5.386;2024-01-16T09:30:07;100860.78;;;18.22;41.00
61710;BME280;73500;51.494;5.386;2024-01-16T09:32:33;100872.38;;;18.31;41.07
61710;BME280;73500;51.494;5.386;2024-01-16T09:35:01;100866.38;;;18.29;41.24
61710;BME280;73500;51.494;5.386;2024-01-16T09:37:28;100869.88;;;18.29;41.22
61710;BME280;73500;51.494;5.386;2024-01-16T09:39:53;100867.25;;;18.29;41.30
61710;BME280;73500;51.494;5.386;2024-01-16T09:42:19;100841.34;;;18.23;41.41
61710;BME280;73500;51.494;5.386;2024-01-16T09:44:46;100842.69;;;18.18;41.64
61710;BME280;73500;51.494;5.386;2024-01-16T09:47:12;100864.97;;;18.25;41.28
61710;BME280;73500;51.494;5.386;2024-01-16T09:49:38;100869.16;;;18.27;41.43
61710;BME280;73500;51.494;5.386;2024-01-16T09:52:04;100855.88;;;18.18;41.79
61710;BME280;73500;51.494;5.386;2024-01-16T09:54:30;100869.88;;;18.29;41.69
61710;BME280;73500;51.494;5.386;2024-01-16T09:56:58;100871.53;;;18.30;41.47
61710;BME280;73500;51.494;5.386;2024-01-16T09:59:24;100863.63;;;18.30;41.84
61710;BME280;73500;51.494;5.386;2024-01-16T10:01:52;100854.88;;;18.30;41.61
61710;BME280;73500;51.494;5.386;2024-01-16T10:04:19;100848.28;;;18.24;41.57
61710;BME280;73500;51.494;5.386;2024-01-16T10:06:45;100838.84;;;18.22;41.40
61710;BME280;73500;51.494;5.386;2024-01-16T10:09:12;100851.41;;;18.29;41.31
61710;BME280;73500;51.494;5.386;2024-01-16T10:11:37;100841.34;;;18.23;41.16
61710;BME280;73500;51.494;5.386;2024-01-16T10:14:03;100835.47;;;18.20;40.97
61710;BME280;73500;51.494;5.386;2024-01-16T10:19:29;100845.41;;;18.27;40.87
61710;BME280;73500;51.494;5.386;2024-01-16T10:22:04;100831.31;;;18.17;40.95
61710;BME280;73500;51.494;5.386;2024-01-16T10:24:31;100832.00;;;18.19;40.46
61710;BME280;73500;51.494;5.386;2024-01-16T10:26:59;100836.09;;;18.23;40.29
61710;BME280;73500;51.494;5.386;2024-01-16T10:29:32;100828.16;;;18.23;40.36
61710;BME280;73500;51.494;5.386;2024-01-16T10:31:58;100824.09;;;18.19;40.66
61710;BME280;73500;51.494;5.386;2024-01-16T10:34:24;100820.38;;;18.22;40.24
61710;BME280;73500;51.494;5.386;2024-01-16T10:36:51;100820.38;;;18.22;40.31
61710;BME280;73500;51.494;5.386;2024-01-16T10:39:17;100814.13;;;18.23;40.69
61710;BME280;73500;51.494;5.386;2024-01-16T10:41:54;100809.69;;;18.23;40.56
61710;BME280;73500;51.494;5.386;2024-01-16T10:44:20;100811.34;;;18.24;40.56
61710;BME280;73500;51.494;5.386;2024-01-16T10:46:45;100795.31;;;18.16;40.48
61710;BME280;73500;51.494;5.386;2024-01-16T10:49:11;100812.22;;;18.25;40.68
61710;BME280;73500;51.494;5.386;2024-01-16T10:51:51;100826.94;;;18.27;40.38
61710;BME280;73500;51.494;5.386;2024-01-16T10:54:17;100824.66;;;18.23;40.28
61710;BME280;73500;51.494;5.386;2024-01-16T10:56:44;100817.63;;;18.23;40.09
61710;BME280;73500;51.494;5.386;2024-01-16T10:59:24;100808.72;;;18.24;39.82
61710;BME280;73500;51.494;5.386;2024-01-16T11:01:53;100786.72;;;18.14;40.19
61710;BME280;73500;51.494;5.386;2024-01-16T11:04:20;100807.06;;;18.23;40.19
61710;BME280;73500;51.494;5.386;2024-01-16T11:06:46;100796.88;;;18.19;39.70
61710;BME280;73500;51.494;5.386;2024-01-16T11:09:13;100782.38;;;18.13;39.65
61710;BME280;73500;51.494;5.386;2024-01-16T11:11:43;100800.94;;;18.23;39.83
61710;BME280;73500;51.494;5.386;2024-01-16T11:14:10;100794.50;;;18.16;39.76
61710;BME280;73500;51.494;5.386;2024-01-16T11:16:36;100796.63;;;18.22;39.54
61710;BME280;73500;51.494;5.386;2024-01-16T11:19:04;100789.53;;;18.22;39.87
61710;BME280;73500;51.494;5.386;2024-01-16T11:21:31;100787.75;;;18.23;40.06
61710;BME280;73500;51.494;5.386;2024-01-16T11:23:57;100770.88;;;18.14;40.34
61710;BME280;73500;51.494;5.386;2024-01-16T11:26:37;100789.41;;;18.24;40.14
61710;BME280;73500;51.494;5.386;2024-01-16T11:31:52;100778.41;;;18.19;40.12
61710;BME280;73500;51.494;5.386;2024-01-16T11:37:12;100798.66;;;18.29;39.90
61710;BME280;73500;51.494;5.386;2024-01-16T11:39:39;100778.03;;;18.23;39.98
61710;BME280;73500;51.494;5.386;2024-01-16T11:42:25;100778.41;;;18.19;39.54
61710;BME280;73500;51.494;5.386;2024-01-16T11:44:51;100794.06;;;18.31;39.64
61710;BME280;73500;51.494;5.386;2024-01-16T11:47:23;100784.84;;;18.26;39.08
61710;BME280;73500;51.494;5.386;2024-01-16T11:50:09;100778.03;;;18.23;39.51
61710;BME280;73500;51.494;5.386;2024-01-16T11:55:24;100776.19;;;18.35;39.83
61710;BME280;73500;51.494;5.386;2024-01-16T12:00:54;100778.56;;;18.38;39.50
61710;BME280;73500;51.494;5.386;2024-01-16T12:03:22;100748.53;;;18.29;39.42
61710;BME280;73500;51.494;5.386;2024-01-16T12:06:15;100764.16;;;18.42;39.50
61710;BME280;73500;51.494;5.386;2024-01-16T12:08:41;100760.53;;;18.43;39.40
61710;BME280;73500;51.494;5.386;2024-01-16T12:11:07;100758.88;;;18.42;39.50
61710;BME280;73500;51.494;5.386;2024-01-16T12:13:32;100740.34;;;18.33;39.66
61710;BME280;73500;51.494;5.386;2024-01-16T12:16:02;100750.84;;;18.44;39.62
61710;BME280;73500;51.494;5.386;2024-01-16T12:18:29;100750.50;;;18.37;39.08
61710;BME280;73500;51.494;5.386;2024-01-16T12:20:54;100747.59;;;18.40;39.17
61710;BME280;73500;51.494;5.386;2024-01-16T12:23:20;100742.31;;;18.40;39.41
61710;BME280;73500;51.494;5.386;2024-01-16T12:25:47;100723.53;;;18.34;39.47
61710;BME280;73500;51.494;5.386;2024-01-16T12:28:20;100715.88;;;18.30;39.57
61710;BME280;73500;51.494;5.386;2024-01-16T12:30:50;100731.78;;;18.40;39.22
61710;BME280;73500;51.494;5.386;2024-01-16T12:33:16;100726.75;;;18.37;38.96
61710;BME280;73500;51.494;5.386;2024-01-16T12:35:46;100735.41;;;18.39;38.87
61710;BME280;73500;51.494;5.386;2024-01-16T12:38:13;100736.22;;;18.40;39.07
61710;BME280;73500;51.494;5.386;2024-01-16T12:40:45;100718.38;;;18.32;39.15
61710;BME280;73500;51.494;5.386;2024-01-16T12:43:12;100727.34;;;18.41;39.61
61710;BME280;73500;51.494;5.386;2024-01-16T12:45:37;100720.91;;;18.34;39.42
61710;BME280;73500;51.494;5.386;2024-01-16T12:48:03;100709.41;;;18.35;39.61
61710;BME280;73500;51.494;5.386;2024-01-16T12:50:30;100719.31;;;18.42;39.49
61710;BME280;73500;51.494;5.386;2024-01-16T12:55:29;100714.66;;;18.35;39.20
61710;BME280;73500;51.494;5.386;2024-01-16T13:00:38;100715.81;;;18.42;39.37
61710;BME280;73500;51.494;5.386;2024-01-16T13:03:07;100710.66;;;18.40;39.17
61710;BME280;73500;51.494;5.386;2024-01-16T13:05:32;100710.41;;;18.43;39.34